Dalhart Municipal Airport Dalhart US
ICAO: KDHT
IATA: DHT
Category: Medium
Scheduled Services: No

Elevation: 3991 ft
TransAlt. 18000 ft.

Airport Communications:
ASOS:134.075
ALBUQUERQUE CNTR:127.85
FORT WORTH RDO:122.2
CTAF/UNICOM:122.95

KDHT Zoom In..

If Map Doesn't Load, Click Here

Runways:

(A) RW 03 length 5440 ft width 75 ft
---- / hdg 36

(B) RW 17 length 6400 ft width 75 ft
---- / hdg 171

(C) RW 21 length 5440 ft width 75 ft
---- / hdg 216

(D) RW 35 length 6400 ft width 75 ft
---- / hdg 351

Location; KDHT
Day. 21 / Time. 13.39 Zulu
* Altimeter: 30.20
* Temperature: 17° c. 62.6°f.
* Wind from: 030° Speed 23 kn with Gusts up to 31 kn.
Dewpoint: 16° c.
Visibility: 4 Statute Miles.
Clouds: Overcast 400 ft.
Conditions: Mist.

KDHT 211339Z AUTO 03023G31KT 4SM BR OVC004 17/16 A3020 RMK AO2 PK WND 04031/1332 RAB1254E05 CIG 003V007 P0000 T01720156


Wind From 030°
Speed 23 kn.

 
 
jpsmedia.com for Web Design worldairports.se 2018   terms of use